sensor_id;sensor_type;location;lat;lon;timestamp;P1;durP1;ratioP1;P2;durP2;ratioP2
42364;SDS011;28498;54.400;18.566;2022-09-27T00:01:04;21.88;;;12.10;;
42364;SDS011;28498;54.400;18.566;2022-09-27T00:03:33;21.92;;;11.98;;
42364;SDS011;28498;54.400;18.566;2022-09-27T00:06:03;22.00;;;11.75;;
42364;SDS011;28498;54.400;18.566;2022-09-27T00:08:48;23.42;;;11.85;;
42364;SDS011;28498;54.400;18.566;2022-09-27T00:11:23;23.40;;;12.65;;
42364;SDS011;28498;54.400;18.566;2022-09-27T00:13:52;24.10;;;12.27;;
42364;SDS011;28498;54.400;18.566;2022-09-27T00:16:21;24.63;;;12.35;;
42364;SDS011;28498;54.400;18.566;2022-09-27T00:18:50;24.17;;;11.98;;
42364;SDS011;28498;54.400;18.566;2022-09-27T00:21:17;26.73;;;13.02;;
42364;SDS011;28498;54.400;18.566;2022-09-27T00:23:44;27.55;;;12.75;;
42364;SDS011;28498;54.400;18.566;2022-09-27T00:26:11;25.58;;;13.40;;
42364;SDS011;28498;54.400;18.566;2022-09-27T00:28:39;25.63;;;13.40;;
42364;SDS011;28498;54.400;18.566;2022-09-27T00:31:11;25.23;;;12.95;;
42364;SDS011;28498;54.400;18.566;2022-09-27T00:33:47;25.75;;;13.98;;
42364;SDS011;28498;54.400;18.566;2022-09-27T00:36:15;28.08;;;13.57;;
42364;SDS011;28498;54.400;18.566;2022-09-27T00:38:43;25.77;;;13.43;;
42364;SDS011;28498;54.400;18.566;2022-09-27T00:41:15;24.50;;;14.30;;
42364;SDS011;28498;54.400;18.566;2022-09-27T00:43:49;30.23;;;13.80;;
42364;SDS011;28498;54.400;18.566;2022-09-27T00:46:19;33.03;;;14.23;;
42364;SDS011;28498;54.400;18.566;2022-09-27T00:48:58;26.90;;;13.95;;
42364;SDS011;28498;54.400;18.566;2022-09-27T00:51:29;26.90;;;14.45;;
42364;SDS011;28498;54.400;18.566;2022-09-27T00:53:57;32.90;;;14.60;;
42364;SDS011;28498;54.400;18.566;2022-09-27T00:56:26;26.23;;;13.80;;
42364;SDS011;28498;54.400;18.566;2022-09-27T00:59:05;27.55;;;14.73;;
42364;SDS011;28498;54.400;18.566;2022-09-27T01:01:42;30.08;;;15.05;;
42364;SDS011;28498;54.400;18.566;2022-09-27T01:04:11;31.73;;;14.52;;
42364;SDS011;28498;54.400;18.566;2022-09-27T01:06:39;25.95;;;14.30;;
42364;SDS011;28498;54.400;18.566;2022-09-27T01:09:07;31.63;;;14.65;;
42364;SDS011;28498;54.400;18.566;2022-09-27T01:34:03;29.13;;;14.40;;
42364;SDS011;28498;54.400;18.566;2022-09-27T01:36:42;27.40;;;14.27;;
42364;SDS011;28498;54.400;18.566;2022-09-27T01:44:57;25.10;;;14.70;;
42364;SDS011;28498;54.400;18.566;2022-09-27T01:47:36;25.73;;;13.27;;
42364;SDS011;28498;54.400;18.566;2022-09-27T01:50:20;26.45;;;13.90;;
42364;SDS011;28498;54.400;18.566;2022-09-27T01:55:21;22.77;;;12.90;;
42364;SDS011;28498;54.400;18.566;2022-09-27T01:57:55;24.67;;;12.77;;
42364;SDS011;28498;54.400;18.566;2022-09-27T02:00:30;22.42;;;11.93;;
42364;SDS011;28498;54.400;18.566;2022-09-27T02:03:06;23.50;;;13.27;;
42364;SDS011;28498;54.400;18.566;2022-09-27T02:05:40;23.10;;;12.63;;
42364;SDS011;28498;54.400;18.566;2022-09-27T02:08:18;21.88;;;12.80;;
42364;SDS011;28498;54.400;18.566;2022-09-27T02:10:53;26.10;;;13.57;;
42364;SDS011;28498;54.400;18.566;2022-09-27T02:13:25;21.98;;;13.20;;
42364;SDS011;28498;54.400;18.566;2022-09-27T02:18:56;20.88;;;10.85;;
42364;SDS011;28498;54.400;18.566;2022-09-27T02:21:56;21.77;;;12.50;;
42364;SDS011;28498;54.400;18.566;2022-09-27T02:24:46;25.63;;;12.80;;
42364;SDS011;28498;54.400;18.566;2022-09-27T02:27:27;15.43;;;9.98;;
42364;SDS011;28498;54.400;18.566;2022-09-27T02:30:01;18.88;;;10.80;;
42364;SDS011;28498;54.400;18.566;2022-09-27T02:32:32;15.68;;;10.35;;
42364;SDS011;28498;54.400;18.566;2022-09-27T02:35:01;17.30;;;10.07;;
42364;SDS011;28498;54.400;18.566;2022-09-27T02:37:33;18.20;;;10.85;;
42364;SDS011;28498;54.400;18.566;2022-09-27T02:40:00;19.00;;;10.32;;
42364;SDS011;28498;54.400;18.566;2022-09-27T02:42:29;15.25;;;10.20;;
42364;SDS011;28498;54.400;18.566;2022-09-27T02:44:58;18.52;;;10.77;;
42364;SDS011;28498;54.400;18.566;2022-09-27T02:51:04;20.85;;;10.55;;
42364;SDS011;28498;54.400;18.566;2022-09-27T02:53:37;17.83;;;10.45;;
42364;SDS011;28498;54.400;18.566;2022-09-27T02:56:36;18.30;;;9.75;;
42364;SDS011;28498;54.400;18.566;2022-09-27T02:59:27;17.70;;;10.10;;
42364;SDS011;28498;54.400;18.566;2022-09-27T03:07:16;17.95;;;11.30;;
42364;SDS011;28498;54.400;18.566;2022-09-27T03:09:48;18.33;;;10.73;;
42364;SDS011;28498;54.400;18.566;2022-09-27T03:12:17;17.85;;;11.50;;
42364;SDS011;28498;54.400;18.566;2022-09-27T03:14:48;18.42;;;11.57;;
42364;SDS011;28498;54.400;18.566;2022-09-27T03:17:15;24.10;;;12.80;;
42364;SDS011;28498;54.400;18.566;2022-09-27T03:19:42;22.17;;;12.27;;
42364;SDS011;28498;54.400;18.566;2022-09-27T03:22:09;19.48;;;11.70;;
42364;SDS011;28498;54.400;18.566;2022-09-27T03:24:36;18.95;;;11.00;;
42364;SDS011;28498;54.400;18.566;2022-09-27T03:27:03;23.13;;;11.52;;
42364;SDS011;28498;54.400;18.566;2022-09-27T03:29:29;19.58;;;11.05;;
42364;SDS011;28498;54.400;18.566;2022-09-27T03:31:57;21.15;;;10.57;;
42364;SDS011;28498;54.400;18.566;2022-09-27T03:34:24;22.00;;;11.77;;
42364;SDS011;28498;54.400;18.566;2022-09-27T03:36:51;21.40;;;11.82;;
42364;SDS011;28498;54.400;18.566;2022-09-27T03:39:18;19.45;;;11.75;;
42364;SDS011;28498;54.400;18.566;2022-09-27T03:41:45;19.85;;;11.38;;
42364;SDS011;28498;54.400;18.566;2022-09-27T03:44:12;20.92;;;11.32;;
42364;SDS011;28498;54.400;18.566;2022-09-27T03:46:39;20.08;;;10.88;;
42364;SDS011;28498;54.400;18.566;2022-09-27T03:49:06;21.67;;;11.70;;
42364;SDS011;28498;54.400;18.566;2022-09-27T03:51:32;19.52;;;11.63;;
42364;SDS011;28498;54.400;18.566;2022-09-27T03:53:59;23.90;;;12.88;;
42364;SDS011;28498;54.400;18.566;2022-09-27T03:56:26;28.70;;;12.98;;
42364;SDS011;28498;54.400;18.566;2022-09-27T03:58:53;23.70;;;13.50;;
42364;SDS011;28498;54.400;18.566;2022-09-27T04:01:20;27.58;;;13.63;;
42364;SDS011;28498;54.400;18.566;2022-09-27T04:03:47;26.98;;;14.30;;
42364;SDS011;28498;54.400;18.566;2022-09-27T04:06:15;26.83;;;14.30;;
42364;SDS011;28498;54.400;18.566;2022-09-27T04:08:43;30.33;;;13.55;;
42364;SDS011;28498;54.400;18.566;2022-09-27T04:11:11;24.30;;;13.00;;
42364;SDS011;28498;54.400;18.566;2022-09-27T04:13:38;26.52;;;13.85;;
42364;SDS011;28498;54.400;18.566;2022-09-27T04:16:05;28.27;;;14.20;;
42364;SDS011;28498;54.400;18.566;2022-09-27T04:18:32;39.13;;;16.08;;
42364;SDS011;28498;54.400;18.566;2022-09-27T04:20:59;28.15;;;15.10;;
42364;SDS011;28498;54.400;18.566;2022-09-27T04:23:27;27.90;;;14.35;;
42364;SDS011;28498;54.400;18.566;2022-09-27T04:25:55;28.13;;;14.43;;
42364;SDS011;28498;54.400;18.566;2022-09-27T04:28:22;34.55;;;16.00;;
42364;SDS011;28498;54.400;18.566;2022-09-27T04:30:49;36.00;;;15.63;;
42364;SDS011;28498;54.400;18.566;2022-09-27T04:33:16;37.72;;;16.85;;
42364;SDS011;28498;54.400;18.566;2022-09-27T04:35:43;35.13;;;17.17;;
42364;SDS011;28498;54.400;18.566;2022-09-27T04:38:28;37.47;;;18.27;;
42364;SDS011;28498;54.400;18.566;2022-09-27T04:40:55;41.38;;;19.83;;
42364;SDS011;28498;54.400;18.566;2022-09-27T04:43:22;39.72;;;20.17;;
42364;SDS011;28498;54.400;18.566;2022-09-27T04:45:48;43.00;;;19.63;;
42364;SDS011;28498;54.400;18.566;2022-09-27T04:48:15;41.65;;;19.35;;
42364;SDS011;28498;54.400;18.566;2022-09-27T04:50:42;48.60;;;21.52;;
42364;SDS011;28498;54.400;18.566;2022-09-27T04:53:11;39.65;;;20.40;;
42364;SDS011;28498;54.400;18.566;2022-09-27T04:55:43;41.35;;;20.48;;
42364;SDS011;28498;54.400;18.566;2022-09-27T04:58:11;47.25;;;21.00;;
42364;SDS011;28498;54.400;18.566;2022-09-27T05:00:38;46.08;;;20.27;;
42364;SDS011;28498;54.400;18.566;2022-09-27T05:03:08;46.08;;;21.77;;
42364;SDS011;28498;54.400;18.566;2022-09-27T05:05:34;53.85;;;21.85;;
42364;SDS011;28498;54.400;18.566;2022-09-27T05:08:01;43.78;;;20.75;;
42364;SDS011;28498;54.400;18.566;2022-09-27T05:10:28;47.97;;;22.02;;
42364;SDS011;28498;54.400;18.566;2022-09-27T05:12:55;40.00;;;21.05;;
42364;SDS011;28498;54.400;18.566;2022-09-27T05:15:22;42.30;;;19.73;;
42364;SDS011;28498;54.400;18.566;2022-09-27T05:17:52;41.10;;;20.13;;
42364;SDS011;28498;54.400;18.566;2022-09-27T05:20:19;41.70;;;20.58;;
42364;SDS011;28498;54.400;18.566;2022-09-27T05:22:46;41.85;;;20.60;;
42364;SDS011;28498;54.400;18.566;2022-09-27T05:25:13;41.03;;;21.13;;
42364;SDS011;28498;54.400;18.566;2022-09-27T05:27:40;41.90;;;20.40;;
42364;SDS011;28498;54.400;18.566;2022-09-27T05:30:07;53.47;;;25.38;;
42364;SDS011;28498;54.400;18.566;2022-09-27T05:32:34;49.47;;;24.00;;
42364;SDS011;28498;54.400;18.566;2022-09-27T05:35:01;46.47;;;23.30;;
42364;SDS011;28498;54.400;18.566;2022-09-27T05:37:28;55.83;;;25.77;;
42364;SDS011;28498;54.400;18.566;2022-09-27T05:39:59;55.58;;;27.25;;
42364;SDS011;28498;54.400;18.566;2022-09-27T05:42:42;57.72;;;27.40;;
42364;SDS011;28498;54.400;18.566;2022-09-27T05:45:09;53.65;;;28.95;;
42364;SDS011;28498;54.400;18.566;2022-09-27T05:47:36;57.75;;;28.25;;
42364;SDS011;28498;54.400;18.566;2022-09-27T05:50:03;61.55;;;29.27;;
42364;SDS011;28498;54.400;18.566;2022-09-27T05:52:32;54.65;;;29.05;;
42364;SDS011;28498;54.400;18.566;2022-09-27T05:54:59;52.33;;;28.17;;
42364;SDS011;28498;54.400;18.566;2022-09-27T05:57:26;60.65;;;28.10;;
42364;SDS011;28498;54.400;18.566;2022-09-27T05:59:52;55.58;;;28.58;;
42364;SDS011;28498;54.400;18.566;2022-09-27T06:02:19;58.33;;;31.02;;
42364;SDS011;28498;54.400;18.566;2022-09-27T06:04:46;54.80;;;30.27;;
42364;SDS011;28498;54.400;18.566;2022-09-27T06:07:13;57.28;;;30.90;;
42364;SDS011;28498;54.400;18.566;2022-09-27T06:09:40;50.22;;;27.60;;
42364;SDS011;28498;54.400;18.566;2022-09-27T06:12:07;48.15;;;27.73;;
42364;SDS011;28498;54.400;18.566;2022-09-27T06:14:37;47.70;;;25.45;;
42364;SDS011;28498;54.400;18.566;2022-09-27T06:17:04;45.58;;;25.77;;
42364;SDS011;28498;54.400;18.566;2022-09-27T06:19:31;46.15;;;26.85;;
42364;SDS011;28498;54.400;18.566;2022-09-27T06:21:58;46.63;;;25.90;;
42364;SDS011;28498;54.400;18.566;2022-09-27T06:24:24;42.97;;;24.95;;
42364;SDS011;28498;54.400;18.566;2022-09-27T06:26:51;40.47;;;24.08;;
42364;SDS011;28498;54.400;18.566;2022-09-27T06:29:18;42.53;;;24.60;;
42364;SDS011;28498;54.400;18.566;2022-09-27T06:31:45;38.10;;;22.48;;
42364;SDS011;28498;54.400;18.566;2022-09-27T06:34:12;38.70;;;21.63;;
42364;SDS011;28498;54.400;18.566;2022-09-27T06:36:39;39.13;;;23.15;;
42364;SDS011;28498;54.400;18.566;2022-09-27T06:39:06;40.72;;;22.67;;
42364;SDS011;28498;54.400;18.566;2022-09-27T06:41:33;39.03;;;22.95;;
42364;SDS011;28498;54.400;18.566;2022-09-27T06:44:01;36.85;;;21.67;;
42364;SDS011;28498;54.400;18.566;2022-09-27T06:46:28;38.20;;;20.85;;
42364;SDS011;28498;54.400;18.566;2022-09-27T06:48:55;45.00;;;22.73;;
42364;SDS011;28498;54.400;18.566;2022-09-27T06:51:22;40.42;;;23.60;;
42364;SDS011;28498;54.400;18.566;2022-09-27T06:53:49;40.15;;;22.90;;
42364;SDS011;28498;54.400;18.566;2022-09-27T06:56:16;41.40;;;22.58;;
42364;SDS011;28498;54.400;18.566;2022-09-27T06:58:42;39.92;;;22.70;;
42364;SDS011;28498;54.400;18.566;2022-09-27T07:01:28;39.67;;;22.95;;
42364;SDS011;28498;54.400;18.566;2022-09-27T07:03:55;39.13;;;22.27;;
42364;SDS011;28498;54.400;18.566;2022-09-27T07:06:24;37.70;;;22.92;;
42364;SDS011;28498;54.400;18.566;2022-09-27T07:08:51;42.13;;;23.90;;
42364;SDS011;28498;54.400;18.566;2022-09-27T07:11:19;45.45;;;24.30;;
42364;SDS011;28498;54.400;18.566;2022-09-27T07:13:48;48.78;;;24.80;;
42364;SDS011;28498;54.400;18.566;2022-09-27T07:16:16;40.45;;;23.77;;
42364;SDS011;28498;54.400;18.566;2022-09-27T07:18:43;42.35;;;22.98;;
42364;SDS011;28498;54.400;18.566;2022-09-27T07:24:59;39.30;;;23.58;;
42364;SDS011;28498;54.400;18.566;2022-09-27T07:27:25;48.53;;;25.63;;
42364;SDS011;28498;54.400;18.566;2022-09-27T07:29:52;48.35;;;24.55;;
42364;SDS011;28498;54.400;18.566;2022-09-27T07:32:19;45.15;;;25.83;;
42364;SDS011;28498;54.400;18.566;2022-09-27T07:34:47;47.72;;;24.42;;
42364;SDS011;28498;54.400;18.566;2022-09-27T07:41:05;46.80;;;24.98;;
42364;SDS011;28498;54.400;18.566;2022-09-27T07:43:37;52.60;;;27.45;;
42364;SDS011;28498;54.400;18.566;2022-09-27T07:49:46;47.15;;;27.58;;
42364;SDS011;28498;54.400;18.566;2022-09-27T07:52:13;48.97;;;28.77;;
42364;SDS011;28498;54.400;18.566;2022-09-27T07:54:40;48.97;;;27.30;;
42364;SDS011;28498;54.400;18.566;2022-09-27T07:57:06;47.38;;;26.77;;
42364;SDS011;28498;54.400;18.566;2022-09-27T07:59:33;46.30;;;27.23;;
42364;SDS011;28498;54.400;18.566;2022-09-27T08:02:00;51.83;;;28.42;;
42364;SDS011;28498;54.400;18.566;2022-09-27T08:04:27;54.75;;;27.77;;
42364;SDS011;28498;54.400;18.566;2022-09-27T08:06:54;54.47;;;27.83;;
42364;SDS011;28498;54.400;18.566;2022-09-27T08:09:21;55.33;;;28.60;;
42364;SDS011;28498;54.400;18.566;2022-09-27T08:11:48;45.88;;;27.67;;
42364;SDS011;28498;54.400;18.566;2022-09-27T08:14:15;49.28;;;30.20;;
42364;SDS011;28498;54.400;18.566;2022-09-27T08:16:41;48.92;;;27.77;;
42364;SDS011;28498;54.400;18.566;2022-09-27T08:19:09;41.35;;;25.58;;
42364;SDS011;28498;54.400;18.566;2022-09-27T08:21:36;41.80;;;25.80;;
42364;SDS011;28498;54.400;18.566;2022-09-27T08:24:03;45.95;;;26.13;;
42364;SDS011;28498;54.400;18.566;2022-09-27T08:26:30;52.83;;;26.88;;
42364;SDS011;28498;54.400;18.566;2022-09-27T08:28:57;47.40;;;26.15;;
42364;SDS011;28498;54.400;18.566;2022-09-27T08:31:24;40.55;;;23.65;;
42364;SDS011;28498;54.400;18.566;2022-09-27T08:37:38;37.67;;;23.08;;
42364;SDS011;28498;54.400;18.566;2022-09-27T08:40:06;35.45;;;22.42;;
42364;SDS011;28498;54.400;18.566;2022-09-27T08:45:33;35.40;;;21.40;;
42364;SDS011;28498;54.400;18.566;2022-09-27T08:48:07;35.53;;;20.95;;
42364;SDS011;28498;54.400;18.566;2022-09-27T08:50:36;34.75;;;23.55;;
42364;SDS011;28498;54.400;18.566;2022-09-27T08:55:52;36.67;;;21.98;;
42364;SDS011;28498;54.400;18.566;2022-09-27T08:58:25;39.70;;;23.67;;
42364;SDS011;28498;54.400;18.566;2022-09-27T09:00:58;34.08;;;22.95;;
42364;SDS011;28498;54.400;18.566;2022-09-27T09:03:29;35.65;;;21.88;;
42364;SDS011;28498;54.400;18.566;2022-09-27T09:06:06;37.63;;;22.88;;
42364;SDS011;28498;54.400;18.566;2022-09-27T09:09:12;42.47;;;25.30;;
42364;SDS011;28498;54.400;18.566;2022-09-27T09:20:53;35.40;;;22.55;;
42364;SDS011;28498;54.400;18.566;2022-09-27T09:23:24;32.05;;;21.10;;
42364;SDS011;28498;54.400;18.566;2022-09-27T09:31:44;30.63;;;19.40;;
42364;SDS011;28498;54.400;18.566;2022-09-27T09:34:39;29.55;;;18.45;;
42364;SDS011;28498;54.400;18.566;2022-09-27T09:39:48;27.17;;;18.15;;
42364;SDS011;28498;54.400;18.566;2022-09-27T09:42:32;27.10;;;17.88;;
42364;SDS011;28498;54.400;18.566;2022-09-27T09:56:31;27.23;;;17.73;;
42364;SDS011;28498;54.400;18.566;2022-09-27T09:59:02;22.58;;;15.73;;
42364;SDS011;28498;54.400;18.566;2022-09-27T10:01:43;23.98;;;16.35;;
42364;SDS011;28498;54.400;18.566;2022-09-27T10:04:23;23.95;;;15.63;;
42364;SDS011;28498;54.400;18.566;2022-09-27T10:10:41;19.42;;;13.43;;
42364;SDS011;28498;54.400;18.566;2022-09-27T10:13:11;23.17;;;14.60;;
42364;SDS011;28498;54.400;18.566;2022-09-27T10:15:56;22.70;;;14.52;;
42364;SDS011;28498;54.400;18.566;2022-09-27T10:18:29;21.88;;;14.65;;
42364;SDS011;28498;54.400;18.566;2022-09-27T10:20:59;19.88;;;13.07;;
42364;SDS011;28498;54.400;18.566;2022-09-27T10:23:29;23.92;;;12.65;;
42364;SDS011;28498;54.400;18.566;2022-09-27T10:25:57;17.83;;;12.00;;
42364;SDS011;28498;54.400;18.566;2022-09-27T10:31:06;16.73;;;11.65;;
42364;SDS011;28498;54.400;18.566;2022-09-27T10:33:54;17.00;;;11.00;;
42364;SDS011;28498;54.400;18.566;2022-09-27T10:36:26;16.77;;;11.50;;
42364;SDS011;28498;54.400;18.566;2022-09-27T10:38:55;19.00;;;11.65;;
42364;SDS011;28498;54.400;18.566;2022-09-27T10:41:36;17.70;;;12.00;;
42364;SDS011;28498;54.400;18.566;2022-09-27T10:46:44;19.02;;;12.23;;
42364;SDS011;28498;54.400;18.566;2022-09-27T10:49:30;17.07;;;12.27;;
42364;SDS011;28498;54.400;18.566;2022-09-27T10:52:03;19.83;;;12.27;;
42364;SDS011;28498;54.400;18.566;2022-09-27T10:54:41;15.80;;;11.80;;
42364;SDS011;28498;54.400;18.566;2022-09-27T10:57:25;18.15;;;12.18;;
42364;SDS011;28498;54.400;18.566;2022-09-27T10:59:59;19.58;;;12.65;;
42364;SDS011;28498;54.400;18.566;2022-09-27T11:02:31;20.45;;;12.88;;
42364;SDS011;28498;54.400;18.566;2022-09-27T11:08:48;20.13;;;13.48;;
42364;SDS011;28498;54.400;18.566;2022-09-27T11:14:00;19.73;;;13.63;;
42364;SDS011;28498;54.400;18.566;2022-09-27T11:30:04;25.35;;;15.88;;
42364;SDS011;28498;54.400;18.566;2022-09-27T11:38:40;20.00;;;12.95;;
42364;SDS011;28498;54.400;18.566;2022-09-27T11:44:23;14.95;;;11.52;;
42364;SDS011;28498;54.400;18.566;2022-09-27T11:52:34;19.33;;;13.88;;
42364;SDS011;28498;54.400;18.566;2022-09-27T12:01:32;19.90;;;12.75;;
42364;SDS011;28498;54.400;18.566;2022-09-27T12:10:34;18.73;;;11.95;;
42364;SDS011;28498;54.400;18.566;2022-09-27T12:13:03;19.23;;;12.45;;
42364;SDS011;28498;54.400;18.566;2022-09-27T12:15:31;18.05;;;12.48;;
42364;SDS011;28498;54.400;18.566;2022-09-27T12:20:44;16.75;;;11.57;;
42364;SDS011;28498;54.400;18.566;2022-09-27T12:23:19;20.30;;;12.23;;
42364;SDS011;28498;54.400;18.566;2022-09-27T12:25:52;16.88;;;12.85;;
42364;SDS011;28498;54.400;18.566;2022-09-27T12:32:08;18.23;;;13.80;;
42364;SDS011;28498;54.400;18.566;2022-09-27T12:34:39;20.38;;;14.98;;
42364;SDS011;28498;54.400;18.566;2022-09-27T12:40:30;20.48;;;14.48;;
42364;SDS011;28498;54.400;18.566;2022-09-27T12:49:09;21.60;;;14.77;;
42364;SDS011;28498;54.400;18.566;2022-09-27T12:51:48;19.52;;;14.32;;
42364;SDS011;28498;54.400;18.566;2022-09-27T13:12:17;22.75;;;16.67;;
42364;SDS011;28498;54.400;18.566;2022-09-27T13:15:05;23.05;;;17.23;;
42364;SDS011;28498;54.400;18.566;2022-09-27T13:22:53;25.23;;;16.33;;
42364;SDS011;28498;54.400;18.566;2022-09-27T13:30:55;22.13;;;14.93;;
42364;SDS011;28498;54.400;18.566;2022-09-27T13:33:29;17.77;;;13.43;;
42364;SDS011;28498;54.400;18.566;2022-09-27T13:47:54;23.60;;;15.90;;
42364;SDS011;28498;54.400;18.566;2022-09-27T13:50:27;22.55;;;16.38;;
42364;SDS011;28498;54.400;18.566;2022-09-27T13:56:53;21.77;;;16.08;;
42364;SDS011;28498;54.400;18.566;2022-09-27T13:59:41;20.42;;;14.77;;
42364;SDS011;28498;54.400;18.566;2022-09-27T14:02:19;23.05;;;17.35;;
42364;SDS011;28498;54.400;18.566;2022-09-27T14:04:50;22.15;;;15.82;;
42364;SDS011;28498;54.400;18.566;2022-09-27T14:07:18;25.67;;;17.33;;
42364;SDS011;28498;54.400;18.566;2022-09-27T14:09:52;22.35;;;15.60;;
42364;SDS011;28498;54.400;18.566;2022-09-27T14:12:21;22.70;;;16.92;;
42364;SDS011;28498;54.400;18.566;2022-09-27T14:14:53;22.88;;;16.77;;
42364;SDS011;28498;54.400;18.566;2022-09-27T14:17:21;22.48;;;16.77;;
42364;SDS011;28498;54.400;18.566;2022-09-27T14:19:48;24.20;;;16.65;;
42364;SDS011;28498;54.400;18.566;2022-09-27T14:22:19;22.65;;;16.00;;
42364;SDS011;28498;54.400;18.566;2022-09-27T14:24:51;25.23;;;16.58;;
42364;SDS011;28498;54.400;18.566;2022-09-27T14:27:31;20.55;;;14.30;;
42364;SDS011;28498;54.400;18.566;2022-09-27T14:30:14;22.38;;;15.40;;
42364;SDS011;28498;54.400;18.566;2022-09-27T14:33:01;19.67;;;13.75;;
42364;SDS011;28498;54.400;18.566;2022-09-27T14:35:29;17.05;;;12.82;;
42364;SDS011;28498;54.400;18.566;2022-09-27T14:38:19;16.88;;;13.45;;
42364;SDS011;28498;54.400;18.566;2022-09-27T14:41:05;18.00;;;13.57;;
42364;SDS011;28498;54.400;18.566;2022-09-27T14:43:33;18.63;;;12.77;;
42364;SDS011;28498;54.400;18.566;2022-09-27T14:46:02;18.00;;;13.70;;
42364;SDS011;28498;54.400;18.566;2022-09-27T14:48:34;18.42;;;13.80;;
42364;SDS011;28498;54.400;18.566;2022-09-27T14:53:42;19.23;;;13.63;;
42364;SDS011;28498;54.400;18.566;2022-09-27T14:59:52;17.70;;;13.25;;
42364;SDS011;28498;54.400;18.566;2022-09-27T15:02:20;19.92;;;13.75;;
42364;SDS011;28498;54.400;18.566;2022-09-27T15:04:51;21.85;;;14.75;;
42364;SDS011;28498;54.400;18.566;2022-09-27T15:07:19;21.33;;;15.45;;
42364;SDS011;28498;54.400;18.566;2022-09-27T15:09:48;19.33;;;14.73;;
42364;SDS011;28498;54.400;18.566;2022-09-27T15:12:19;20.23;;;14.20;;
42364;SDS011;28498;54.400;18.566;2022-09-27T15:14:50;19.33;;;14.98;;
42364;SDS011;28498;54.400;18.566;2022-09-27T15:17:20;18.60;;;14.32;;
42364;SDS011;28498;54.400;18.566;2022-09-27T15:19:57;19.38;;;14.88;;
42364;SDS011;28498;54.400;18.566;2022-09-27T15:22:45;20.40;;;14.32;;
42364;SDS011;28498;54.400;18.566;2022-09-27T15:27:51;21.70;;;15.10;;
42364;SDS011;28498;54.400;18.566;2022-09-27T15:30:24;18.92;;;13.93;;
42364;SDS011;28498;54.400;18.566;2022-09-27T15:32:55;20.42;;;14.98;;
42364;SDS011;28498;54.400;18.566;2022-09-27T15:35:24;22.08;;;15.38;;
42364;SDS011;28498;54.400;18.566;2022-09-27T15:38:08;18.45;;;14.43;;
42364;SDS011;28498;54.400;18.566;2022-09-27T15:49:30;20.77;;;14.75;;
42364;SDS011;28498;54.400;18.566;2022-09-27T15:52:01;20.05;;;14.65;;
42364;SDS011;28498;54.400;18.566;2022-09-27T15:54:30;19.63;;;14.85;;
42364;SDS011;28498;54.400;18.566;2022-09-27T15:57:01;22.30;;;14.82;;
42364;SDS011;28498;54.400;18.566;2022-09-27T15:59:31;20.33;;;14.00;;
42364;SDS011;28498;54.400;18.566;2022-09-27T16:02:08;20.30;;;14.77;;
42364;SDS011;28498;54.400;18.566;2022-09-27T16:04:39;21.90;;;15.50;;
42364;SDS011;28498;54.400;18.566;2022-09-27T16:07:06;21.40;;;15.15;;
42364;SDS011;28498;54.400;18.566;2022-09-27T16:09:35;21.27;;;13.90;;
42364;SDS011;28498;54.400;18.566;2022-09-27T16:12:02;22.83;;;15.63;;
42364;SDS011;28498;54.400;18.566;2022-09-27T16:14:29;23.13;;;14.82;;
42364;SDS011;28498;54.400;18.566;2022-09-27T16:16:59;18.88;;;14.05;;
42364;SDS011;28498;54.400;18.566;2022-09-27T16:19:26;21.67;;;14.50;;
42364;SDS011;28498;54.400;18.566;2022-09-27T16:21:53;23.05;;;15.43;;
42364;SDS011;28498;54.400;18.566;2022-09-27T16:24:21;20.17;;;15.27;;
42364;SDS011;28498;54.400;18.566;2022-09-27T16:26:50;20.73;;;15.13;;
42364;SDS011;28498;54.400;18.566;2022-09-27T16:29:17;24.73;;;17.00;;
42364;SDS011;28498;54.400;18.566;2022-09-27T16:31:44;23.10;;;15.30;;
42364;SDS011;28498;54.400;18.566;2022-09-27T16:34:11;23.95;;;16.55;;
42364;SDS011;28498;54.400;18.566;2022-09-27T16:36:39;23.08;;;15.80;;
42364;SDS011;28498;54.400;18.566;2022-09-27T16:39:06;21.63;;;15.13;;
42364;SDS011;28498;54.400;18.566;2022-09-27T16:41:38;24.48;;;17.17;;
42364;SDS011;28498;54.400;18.566;2022-09-27T16:44:10;25.52;;;15.65;;
42364;SDS011;28498;54.400;18.566;2022-09-27T16:46:38;28.83;;;16.52;;
42364;SDS011;28498;54.400;18.566;2022-09-27T16:49:07;25.00;;;16.13;;
42364;SDS011;28498;54.400;18.566;2022-09-27T16:51:53;22.90;;;16.00;;
42364;SDS011;28498;54.400;18.566;2022-09-27T16:54:28;23.10;;;15.77;;
42364;SDS011;28498;54.400;18.566;2022-09-27T16:56:56;24.92;;;17.17;;
42364;SDS011;28498;54.400;18.566;2022-09-27T16:59:24;23.70;;;16.65;;
42364;SDS011;28498;54.400;18.566;2022-09-27T17:01:51;24.35;;;15.73;;
42364;SDS011;28498;54.400;18.566;2022-09-27T17:04:24;26.85;;;18.35;;
42364;SDS011;28498;54.400;18.566;2022-09-27T17:06:53;22.08;;;15.77;;
42364;SDS011;28498;54.400;18.566;2022-09-27T17:09:20;24.27;;;16.92;;
42364;SDS011;28498;54.400;18.566;2022-09-27T17:11:47;26.92;;;18.70;;
42364;SDS011;28498;54.400;18.566;2022-09-27T17:14:14;27.45;;;17.80;;
42364;SDS011;28498;54.400;18.566;2022-09-27T17:16:45;24.27;;;17.27;;
42364;SDS011;28498;54.400;18.566;2022-09-27T17:19:13;27.90;;;17.83;;
42364;SDS011;28498;54.400;18.566;2022-09-27T17:21:41;27.50;;;17.63;;
42364;SDS011;28498;54.400;18.566;2022-09-27T17:24:10;23.77;;;16.48;;
42364;SDS011;28498;54.400;18.566;2022-09-27T17:26:39;28.83;;;18.73;;
42364;SDS011;28498;54.400;18.566;2022-09-27T17:29:08;27.85;;;17.17;;
42364;SDS011;28498;54.400;18.566;2022-09-27T17:31:37;27.02;;;18.25;;
42364;SDS011;28498;54.400;18.566;2022-09-27T17:34:06;29.67;;;19.92;;
42364;SDS011;28498;54.400;18.566;2022-09-27T17:36:38;27.35;;;18.35;;
42364;SDS011;28498;54.400;18.566;2022-09-27T17:39:11;27.73;;;17.80;;
42364;SDS011;28498;54.400;18.566;2022-09-27T17:41:39;27.95;;;18.23;;
42364;SDS011;28498;54.400;18.566;2022-09-27T17:44:08;28.92;;;18.85;;
42364;SDS011;28498;54.400;18.566;2022-09-27T17:46:38;28.15;;;19.70;;
42364;SDS011;28498;54.400;18.566;2022-09-27T17:49:08;27.25;;;19.17;;
42364;SDS011;28498;54.400;18.566;2022-09-27T17:51:55;31.58;;;19.50;;
42364;SDS011;28498;54.400;18.566;2022-09-27T17:54:23;27.85;;;18.45;;
42364;SDS011;28498;54.400;18.566;2022-09-27T17:56:53;28.02;;;19.27;;
42364;SDS011;28498;54.400;18.566;2022-09-27T17:59:21;32.45;;;20.15;;
42364;SDS011;28498;54.400;18.566;2022-09-27T18:01:48;32.90;;;20.02;;
42364;SDS011;28498;54.400;18.566;2022-09-27T18:04:16;32.45;;;21.08;;
42364;SDS011;28498;54.400;18.566;2022-09-27T18:06:45;31.98;;;21.65;;
42364;SDS011;28498;54.400;18.566;2022-09-27T18:09:13;35.17;;;21.75;;
42364;SDS011;28498;54.400;18.566;2022-09-27T18:11:42;31.50;;;21.25;;
42364;SDS011;28498;54.400;18.566;2022-09-27T18:14:10;28.88;;;20.20;;
42364;SDS011;28498;54.400;18.566;2022-09-27T18:16:39;32.67;;;22.10;;